Terminal Aerodrome Forecast
Issued by NWS Sterling, VA

Current Version | Previous Version | Graphics & Text | Print | Product List | Glossary On
Versions: 1 2 3 4 5 6 7 8 9 10 11 12 13 14 15 16 17 18 19 20
652
FTUS41 KLWX 240536
TAFDCA
TAF
KDCA 240536Z 2406/2506 19005KT P6SM SCT250
     FM241000 18005KT 5SM BR BKN150
     FM241300 18006KT P6SM BKN200
     FM241700 18013KT P6SM BKN250
     FM250200 16009KT P6SM BKN035=

USA.gov is the U.S. government's official web portal to all federal, state and local government web resources and services.